sensor_id;sensor_type;location;lat;lon;timestamp;P1;durP1;ratioP1;P2;durP2;ratioP2
23088;SDS011;11713;48.506;8.966;2022-07-29T00:00:43;8.02;;;7.10;;
23088;SDS011;11713;48.506;8.966;2022-07-29T00:03:11;6.97;;;6.28;;
23088;SDS011;11713;48.506;8.966;2022-07-29T00:05:39;7.80;;;7.03;;
23088;SDS011;11713;48.506;8.966;2022-07-29T00:08:05;7.47;;;6.70;;
23088;SDS011;11713;48.506;8.966;2022-07-29T00:10:32;7.53;;;6.82;;
23088;SDS011;11713;48.506;8.966;2022-07-29T00:12:58;7.10;;;6.45;;
23088;SDS011;11713;48.506;8.966;2022-07-29T00:15:24;7.07;;;6.38;;
23088;SDS011;11713;48.506;8.966;2022-07-29T00:17:50;8.27;;;7.45;;
23088;SDS011;11713;48.506;8.966;2022-07-29T00:20:15;6.95;;;6.20;;
23088;SDS011;11713;48.506;8.966;2022-07-29T00:22:41;7.93;;;6.05;;
23088;SDS011;11713;48.506;8.966;2022-07-29T00:25:07;8.18;;;7.32;;
23088;SDS011;11713;48.506;8.966;2022-07-29T00:27:34;8.98;;;6.72;;
23088;SDS011;11713;48.506;8.966;2022-07-29T00:30:00;7.82;;;6.93;;
23088;SDS011;11713;48.506;8.966;2022-07-29T00:32:27;8.52;;;7.70;;
23088;SDS011;11713;48.506;8.966;2022-07-29T00:34:53;8.05;;;7.28;;
23088;SDS011;11713;48.506;8.966;2022-07-29T00:37:37;8.80;;;7.72;;
23088;SDS011;11713;48.506;8.966;2022-07-29T00:40:03;8.27;;;7.40;;
23088;SDS011;11713;48.506;8.966;2022-07-29T00:42:29;8.50;;;7.75;;
23088;SDS011;11713;48.506;8.966;2022-07-29T00:44:55;9.52;;;7.70;;
23088;SDS011;11713;48.506;8.966;2022-07-29T00:47:21;7.30;;;6.60;;
23088;SDS011;11713;48.506;8.966;2022-07-29T00:49:46;8.20;;;7.40;;
23088;SDS011;11713;48.506;8.966;2022-07-29T00:52:12;7.80;;;7.03;;
23088;SDS011;11713;48.506;8.966;2022-07-29T00:54:39;9.35;;;7.65;;
23088;SDS011;11713;48.506;8.966;2022-07-29T00:57:06;12.23;;;8.10;;
23088;SDS011;11713;48.506;8.966;2022-07-29T00:59:33;7.63;;;6.93;;
23088;SDS011;11713;48.506;8.966;2022-07-29T01:01:59;7.03;;;6.35;;
23088;SDS011;11713;48.506;8.966;2022-07-29T01:04:25;8.55;;;7.65;;
23088;SDS011;11713;48.506;8.966;2022-07-29T01:06:51;8.75;;;7.85;;
23088;SDS011;11713;48.506;8.966;2022-07-29T01:09:19;7.95;;;7.15;;
23088;SDS011;11713;48.506;8.966;2022-07-29T01:11:45;8.10;;;6.60;;
23088;SDS011;11713;48.506;8.966;2022-07-29T01:14:15;7.38;;;6.57;;
23088;SDS011;11713;48.506;8.966;2022-07-29T01:16:54;8.20;;;7.47;;
23088;SDS011;11713;48.506;8.966;2022-07-29T01:22:05;9.77;;;7.75;;
23088;SDS011;11713;48.506;8.966;2022-07-29T01:27:42;7.78;;;7.07;;
23088;SDS011;11713;48.506;8.966;2022-07-29T01:30:30;8.10;;;7.28;;
23088;SDS011;11713;48.506;8.966;2022-07-29T01:33:00;8.38;;;7.57;;
23088;SDS011;11713;48.506;8.966;2022-07-29T01:35:31;7.72;;;6.95;;
23088;SDS011;11713;48.506;8.966;2022-07-29T01:40:43;7.78;;;7.18;;
23088;SDS011;11713;48.506;8.966;2022-07-29T01:43:14;7.75;;;6.50;;
23088;SDS011;11713;48.506;8.966;2022-07-29T01:45:57;7.22;;;6.63;;
23088;SDS011;11713;48.506;8.966;2022-07-29T01:48:29;7.80;;;7.10;;
23088;SDS011;11713;48.506;8.966;2022-07-29T01:53:51;8.25;;;7.47;;
23088;SDS011;11713;48.506;8.966;2022-07-29T01:56:23;7.40;;;6.55;;
23088;SDS011;11713;48.506;8.966;2022-07-29T01:58:54;8.52;;;7.35;;
23088;SDS011;11713;48.506;8.966;2022-07-29T02:01:22;8.55;;;7.72;;
23088;SDS011;11713;48.506;8.966;2022-07-29T02:03:51;8.32;;;7.53;;
23088;SDS011;11713;48.506;8.966;2022-07-29T02:06:19;8.40;;;7.70;;
23088;SDS011;11713;48.506;8.966;2022-07-29T02:08:47;7.50;;;6.80;;
23088;SDS011;11713;48.506;8.966;2022-07-29T02:11:14;7.70;;;7.07;;
23088;SDS011;11713;48.506;8.966;2022-07-29T02:13:40;7.45;;;6.75;;
23088;SDS011;11713;48.506;8.966;2022-07-29T02:16:07;8.00;;;7.20;;
23088;SDS011;11713;48.506;8.966;2022-07-29T02:18:36;8.02;;;7.32;;
23088;SDS011;11713;48.506;8.966;2022-07-29T02:21:04;9.32;;;7.80;;
23088;SDS011;11713;48.506;8.966;2022-07-29T02:23:30;7.35;;;6.53;;
23088;SDS011;11713;48.506;8.966;2022-07-29T02:25:58;7.80;;;6.93;;
23088;SDS011;11713;48.506;8.966;2022-07-29T02:28:28;7.90;;;7.20;;
23088;SDS011;11713;48.506;8.966;2022-07-29T02:30:57;8.63;;;7.68;;
23088;SDS011;11713;48.506;8.966;2022-07-29T02:33:26;7.80;;;7.10;;
23088;SDS011;11713;48.506;8.966;2022-07-29T02:35:52;8.30;;;7.50;;
23088;SDS011;11713;48.506;8.966;2022-07-29T02:38:20;7.53;;;6.97;;
23088;SDS011;11713;48.506;8.966;2022-07-29T02:41:41;7.78;;;7.18;;
23088;SDS011;11713;48.506;8.966;2022-07-29T02:44:06;8.18;;;7.40;;
23088;SDS011;11713;48.506;8.966;2022-07-29T02:46:37;7.67;;;6.97;;
23088;SDS011;11713;48.506;8.966;2022-07-29T02:49:18;9.30;;;7.47;;
23088;SDS011;11713;48.506;8.966;2022-07-29T02:52:19;7.72;;;7.07;;
23088;SDS011;11713;48.506;8.966;2022-07-29T02:54:56;8.63;;;7.47;;
23088;SDS011;11713;48.506;8.966;2022-07-29T03:00:10;7.78;;;6.97;;
23088;SDS011;11713;48.506;8.966;2022-07-29T03:02:38;7.90;;;7.20;;
23088;SDS011;11713;48.506;8.966;2022-07-29T03:05:08;7.38;;;6.78;;
23088;SDS011;11713;48.506;8.966;2022-07-29T03:07:38;7.45;;;6.85;;
23088;SDS011;11713;48.506;8.966;2022-07-29T03:10:06;8.13;;;7.30;;
23088;SDS011;11713;48.506;8.966;2022-07-29T03:12:33;7.88;;;7.10;;
23088;SDS011;11713;48.506;8.966;2022-07-29T03:15:00;9.15;;;6.93;;
23088;SDS011;11713;48.506;8.966;2022-07-29T03:17:27;7.03;;;6.18;;
23088;SDS011;11713;48.506;8.966;2022-07-29T03:19:55;8.05;;;7.10;;
23088;SDS011;11713;48.506;8.966;2022-07-29T03:22:21;6.63;;;6.03;;
23088;SDS011;11713;48.506;8.966;2022-07-29T03:24:48;7.85;;;7.25;;
23088;SDS011;11713;48.506;8.966;2022-07-29T03:27:13;7.97;;;7.28;;
23088;SDS011;11713;48.506;8.966;2022-07-29T03:29:39;9.65;;;7.03;;
23088;SDS011;11713;48.506;8.966;2022-07-29T03:32:05;7.78;;;7.18;;
23088;SDS011;11713;48.506;8.966;2022-07-29T03:34:31;6.47;;;5.80;;
23088;SDS011;11713;48.506;8.966;2022-07-29T03:36:57;7.20;;;6.50;;
23088;SDS011;11713;48.506;8.966;2022-07-29T03:39:25;8.70;;;6.38;;
23088;SDS011;11713;48.506;8.966;2022-07-29T03:41:55;7.93;;;7.22;;
23088;SDS011;11713;48.506;8.966;2022-07-29T03:44:23;6.53;;;5.93;;
23088;SDS011;11713;48.506;8.966;2022-07-29T03:46:52;7.13;;;6.32;;
23088;SDS011;11713;48.506;8.966;2022-07-29T03:49:20;6.97;;;6.28;;
23088;SDS011;11713;48.506;8.966;2022-07-29T03:51:48;7.20;;;6.50;;
23088;SDS011;11713;48.506;8.966;2022-07-29T03:54:14;7.30;;;6.68;;
23088;SDS011;11713;48.506;8.966;2022-07-29T03:56:42;7.17;;;6.47;;
23088;SDS011;11713;48.506;8.966;2022-07-29T03:59:13;7.80;;;5.90;;
23088;SDS011;11713;48.506;8.966;2022-07-29T04:01:40;6.83;;;6.13;;
23088;SDS011;11713;48.506;8.966;2022-07-29T04:04:07;7.45;;;6.70;;
23088;SDS011;11713;48.506;8.966;2022-07-29T04:06:39;6.90;;;6.30;;
23088;SDS011;11713;48.506;8.966;2022-07-29T04:09:06;7.10;;;6.20;;
23088;SDS011;11713;48.506;8.966;2022-07-29T04:11:32;6.10;;;5.50;;
23088;SDS011;11713;48.506;8.966;2022-07-29T04:13:59;5.33;;;4.80;;
23088;SDS011;11713;48.506;8.966;2022-07-29T04:16:25;5.57;;;4.93;;
23088;SDS011;11713;48.506;8.966;2022-07-29T04:18:50;5.63;;;4.70;;
23088;SDS011;11713;48.506;8.966;2022-07-29T04:21:16;5.83;;;5.33;;
23088;SDS011;11713;48.506;8.966;2022-07-29T04:23:42;5.33;;;4.83;;
23088;SDS011;11713;48.506;8.966;2022-07-29T04:26:10;5.53;;;5.03;;
23088;SDS011;11713;48.506;8.966;2022-07-29T04:28:36;5.37;;;4.87;;
23088;SDS011;11713;48.506;8.966;2022-07-29T04:31:04;6.03;;;4.33;;
23088;SDS011;11713;48.506;8.966;2022-07-29T04:33:31;5.00;;;4.60;;
23088;SDS011;11713;48.506;8.966;2022-07-29T04:35:57;4.40;;;4.00;;
23088;SDS011;11713;48.506;8.966;2022-07-29T04:38:23;5.80;;;5.00;;
23088;SDS011;11713;48.506;8.966;2022-07-29T04:40:48;4.90;;;4.40;;
23088;SDS011;11713;48.506;8.966;2022-07-29T04:43:14;4.50;;;4.10;;
23088;SDS011;11713;48.506;8.966;2022-07-29T04:45:45;4.40;;;4.00;;
23088;SDS011;11713;48.506;8.966;2022-07-29T04:48:11;4.43;;;4.03;;
23088;SDS011;11713;48.506;8.966;2022-07-29T04:50:37;5.23;;;4.83;;
23088;SDS011;11713;48.506;8.966;2022-07-29T04:53:05;4.70;;;4.30;;
23088;SDS011;11713;48.506;8.966;2022-07-29T04:55:31;5.17;;;4.63;;
23088;SDS011;11713;48.506;8.966;2022-07-29T04:57:56;5.53;;;5.00;;
23088;SDS011;11713;48.506;8.966;2022-07-29T05:00:22;5.30;;;4.80;;
23088;SDS011;11713;48.506;8.966;2022-07-29T05:02:48;4.82;;;4.43;;
23088;SDS011;11713;48.506;8.966;2022-07-29T05:05:14;5.20;;;4.70;;
23088;SDS011;11713;48.506;8.966;2022-07-29T05:07:41;5.20;;;4.80;;
23088;SDS011;11713;48.506;8.966;2022-07-29T05:10:07;5.00;;;4.57;;
23088;SDS011;11713;48.506;8.966;2022-07-29T05:12:33;4.50;;;4.10;;
23088;SDS011;11713;48.506;8.966;2022-07-29T05:14:59;4.60;;;4.20;;
23088;SDS011;11713;48.506;8.966;2022-07-29T05:17:25;4.28;;;3.92;;
23088;SDS011;11713;48.506;8.966;2022-07-29T05:19:50;5.33;;;3.90;;
23088;SDS011;11713;48.506;8.966;2022-07-29T05:22:17;4.13;;;3.80;;
23088;SDS011;11713;48.506;8.966;2022-07-29T05:24:44;5.55;;;3.83;;
23088;SDS011;11713;48.506;8.966;2022-07-29T05:27:10;4.07;;;3.67;;
23088;SDS011;11713;48.506;8.966;2022-07-29T05:29:36;3.75;;;3.45;;
23088;SDS011;11713;48.506;8.966;2022-07-29T05:32:02;4.90;;;3.70;;
23088;SDS011;11713;48.506;8.966;2022-07-29T05:34:28;4.28;;;3.88;;
23088;SDS011;11713;48.506;8.966;2022-07-29T05:36:55;4.22;;;3.80;;
23088;SDS011;11713;48.506;8.966;2022-07-29T05:39:21;3.65;;;3.35;;
23088;SDS011;11713;48.506;8.966;2022-07-29T05:41:47;5.88;;;3.42;;
23088;SDS011;11713;48.506;8.966;2022-07-29T05:44:13;3.80;;;3.50;;
23088;SDS011;11713;48.506;8.966;2022-07-29T05:46:39;4.30;;;3.83;;
23088;SDS011;11713;48.506;8.966;2022-07-29T05:49:05;4.30;;;3.90;;
23088;SDS011;11713;48.506;8.966;2022-07-29T05:51:35;3.92;;;3.60;;
23088;SDS011;11713;48.506;8.966;2022-07-29T05:54:01;6.97;;;4.10;;
23088;SDS011;11713;48.506;8.966;2022-07-29T05:56:27;5.05;;;3.85;;
23088;SDS011;11713;48.506;8.966;2022-07-29T05:58:53;4.63;;;3.90;;
23088;SDS011;11713;48.506;8.966;2022-07-29T06:01:20;4.28;;;3.90;;
23088;SDS011;11713;48.506;8.966;2022-07-29T06:03:46;4.55;;;4.13;;
23088;SDS011;11713;48.506;8.966;2022-07-29T06:06:13;5.32;;;4.40;;
23088;SDS011;11713;48.506;8.966;2022-07-29T06:08:38;5.10;;;4.30;;
23088;SDS011;11713;48.506;8.966;2022-07-29T06:11:05;5.20;;;4.80;;
23088;SDS011;11713;48.506;8.966;2022-07-29T06:13:31;5.10;;;4.55;;
23088;SDS011;11713;48.506;8.966;2022-07-29T06:15:57;5.20;;;4.50;;
23088;SDS011;11713;48.506;8.966;2022-07-29T06:18:23;4.00;;;3.70;;
23088;SDS011;11713;48.506;8.966;2022-07-29T06:20:52;4.80;;;4.40;;
23088;SDS011;11713;48.506;8.966;2022-07-29T06:23:19;4.57;;;4.18;;
23088;SDS011;11713;48.506;8.966;2022-07-29T06:25:46;5.88;;;4.25;;
23088;SDS011;11713;48.506;8.966;2022-07-29T06:28:12;5.25;;;4.20;;
23088;SDS011;11713;48.506;8.966;2022-07-29T06:30:39;4.25;;;3.90;;
23088;SDS011;11713;48.506;8.966;2022-07-29T06:33:05;4.60;;;4.20;;
23088;SDS011;11713;48.506;8.966;2022-07-29T06:35:33;4.22;;;3.83;;
23088;SDS011;11713;48.506;8.966;2022-07-29T06:38:00;4.97;;;4.43;;
23088;SDS011;11713;48.506;8.966;2022-07-29T06:40:29;4.75;;;4.25;;
23088;SDS011;11713;48.506;8.966;2022-07-29T06:43:13;6.28;;;4.22;;
23088;SDS011;11713;48.506;8.966;2022-07-29T06:45:39;4.10;;;3.70;;
23088;SDS011;11713;48.506;8.966;2022-07-29T06:48:09;5.18;;;4.20;;
23088;SDS011;11713;48.506;8.966;2022-07-29T06:50:35;4.65;;;3.95;;
23088;SDS011;11713;48.506;8.966;2022-07-29T06:53:06;5.60;;;4.07;;
23088;SDS011;11713;48.506;8.966;2022-07-29T06:55:34;5.50;;;3.92;;
23088;SDS011;11713;48.506;8.966;2022-07-29T06:58:02;5.10;;;3.95;;
23088;SDS011;11713;48.506;8.966;2022-07-29T07:00:27;4.03;;;3.63;;
23088;SDS011;11713;48.506;8.966;2022-07-29T07:02:53;6.20;;;4.00;;
23088;SDS011;11713;48.506;8.966;2022-07-29T07:05:38;6.22;;;3.60;;
23088;SDS011;11713;48.506;8.966;2022-07-29T07:08:10;3.70;;;3.40;;
23088;SDS011;11713;48.506;8.966;2022-07-29T07:10:46;6.75;;;3.75;;
23088;SDS011;11713;48.506;8.966;2022-07-29T07:13:12;4.95;;;3.20;;
23088;SDS011;11713;48.506;8.966;2022-07-29T07:15:38;4.68;;;3.75;;
23088;SDS011;11713;48.506;8.966;2022-07-29T07:18:04;4.28;;;3.67;;
23088;SDS011;11713;48.506;8.966;2022-07-29T07:20:31;3.72;;;3.42;;
23088;SDS011;11713;48.506;8.966;2022-07-29T07:23:19;4.45;;;3.50;;
23088;SDS011;11713;48.506;8.966;2022-07-29T07:25:45;5.25;;;3.75;;
23088;SDS011;11713;48.506;8.966;2022-07-29T07:28:10;4.25;;;3.88;;
23088;SDS011;11713;48.506;8.966;2022-07-29T07:30:37;4.50;;;3.97;;
23088;SDS011;11713;48.506;8.966;2022-07-29T07:33:03;3.53;;;3.22;;
23088;SDS011;11713;48.506;8.966;2022-07-29T07:35:30;4.93;;;4.18;;
23088;SDS011;11713;48.506;8.966;2022-07-29T07:37:56;5.78;;;4.38;;
23088;SDS011;11713;48.506;8.966;2022-07-29T07:40:23;4.35;;;4.05;;
23088;SDS011;11713;48.506;8.966;2022-07-29T07:42:49;4.40;;;3.97;;
23088;SDS011;11713;48.506;8.966;2022-07-29T07:45:15;4.00;;;3.70;;
23088;SDS011;11713;48.506;8.966;2022-07-29T07:47:41;5.57;;;3.97;;
23088;SDS011;11713;48.506;8.966;2022-07-29T07:50:07;5.47;;;4.72;;
23088;SDS011;11713;48.506;8.966;2022-07-29T07:52:37;5.65;;;3.95;;
23088;SDS011;11713;48.506;8.966;2022-07-29T07:55:22;4.88;;;3.80;;
23088;SDS011;11713;48.506;8.966;2022-07-29T07:57:49;5.75;;;4.38;;
23088;SDS011;11713;48.506;8.966;2022-07-29T08:00:15;5.60;;;4.13;;
23088;SDS011;11713;48.506;8.966;2022-07-29T08:02:42;4.60;;;4.10;;
23088;SDS011;11713;48.506;8.966;2022-07-29T08:05:08;4.28;;;3.97;;
23088;SDS011;11713;48.506;8.966;2022-07-29T08:07:34;5.65;;;4.18;;
23088;SDS011;11713;48.506;8.966;2022-07-29T08:10:00;5.80;;;4.60;;
23088;SDS011;11713;48.506;8.966;2022-07-29T08:12:27;4.22;;;3.80;;
23088;SDS011;11713;48.506;8.966;2022-07-29T08:14:52;4.78;;;4.30;;
23088;SDS011;11713;48.506;8.966;2022-07-29T08:17:19;4.95;;;4.30;;
23088;SDS011;11713;48.506;8.966;2022-07-29T08:19:45;6.15;;;4.10;;
23088;SDS011;11713;48.506;8.966;2022-07-29T08:22:13;4.88;;;4.35;;
23088;SDS011;11713;48.506;8.966;2022-07-29T08:24:39;4.88;;;4.00;;
23088;SDS011;11713;48.506;8.966;2022-07-29T08:27:08;6.75;;;4.43;;
23088;SDS011;11713;48.506;8.966;2022-07-29T08:29:35;5.70;;;4.25;;
23088;SDS011;11713;48.506;8.966;2022-07-29T08:32:02;6.43;;;4.13;;
23088;SDS011;11713;48.506;8.966;2022-07-29T08:34:28;4.65;;;4.18;;
23088;SDS011;11713;48.506;8.966;2022-07-29T08:36:57;5.95;;;4.18;;
23088;SDS011;11713;48.506;8.966;2022-07-29T08:39:23;5.47;;;4.47;;
23088;SDS011;11713;48.506;8.966;2022-07-29T08:41:50;5.22;;;4.18;;
23088;SDS011;11713;48.506;8.966;2022-07-29T08:44:19;4.60;;;3.90;;
23088;SDS011;11713;48.506;8.966;2022-07-29T08:46:47;5.53;;;4.20;;
23088;SDS011;11713;48.506;8.966;2022-07-29T08:49:14;4.55;;;4.20;;
23088;SDS011;11713;48.506;8.966;2022-07-29T08:51:40;9.88;;;4.80;;
23088;SDS011;11713;48.506;8.966;2022-07-29T08:54:10;5.15;;;3.95;;
23088;SDS011;11713;48.506;8.966;2022-07-29T08:56:42;5.18;;;4.05;;
23088;SDS011;11713;48.506;8.966;2022-07-29T08:59:08;4.20;;;3.90;;
23088;SDS011;11713;48.506;8.966;2022-07-29T09:01:36;6.13;;;4.28;;
23088;SDS011;11713;48.506;8.966;2022-07-29T09:04:06;5.18;;;4.13;;
23088;SDS011;11713;48.506;8.966;2022-07-29T09:06:36;7.40;;;4.47;;
23088;SDS011;11713;48.506;8.966;2022-07-29T09:09:05;4.40;;;3.45;;
23088;SDS011;11713;48.506;8.966;2022-07-29T09:11:32;4.05;;;3.70;;
23088;SDS011;11713;48.506;8.966;2022-07-29T09:13:58;5.88;;;3.90;;
23088;SDS011;11713;48.506;8.966;2022-07-29T09:16:24;5.63;;;4.50;;
23088;SDS011;11713;48.506;8.966;2022-07-29T09:18:50;6.57;;;4.20;;
23088;SDS011;11713;48.506;8.966;2022-07-29T09:21:17;6.72;;;4.43;;
23088;SDS011;11713;48.506;8.966;2022-07-29T09:26:36;5.13;;;4.13;;
23088;SDS011;11713;48.506;8.966;2022-07-29T09:29:13;6.85;;;4.75;;
23088;SDS011;11713;48.506;8.966;2022-07-29T09:31:41;4.65;;;4.18;;
23088;SDS011;11713;48.506;8.966;2022-07-29T09:34:12;4.95;;;4.43;;
23088;SDS011;11713;48.506;8.966;2022-07-29T09:36:43;6.38;;;4.65;;
23088;SDS011;11713;48.506;8.966;2022-07-29T09:39:12;4.45;;;4.05;;
23088;SDS011;11713;48.506;8.966;2022-07-29T09:41:47;7.22;;;4.10;;
23088;SDS011;11713;48.506;8.966;2022-07-29T09:44:21;4.32;;;3.92;;
23088;SDS011;11713;48.506;8.966;2022-07-29T09:49:25;5.40;;;4.05;;
23088;SDS011;11713;48.506;8.966;2022-07-29T09:52:05;4.22;;;3.90;;
23088;SDS011;11713;48.506;8.966;2022-07-29T09:54:32;4.60;;;4.13;;
23088;SDS011;11713;48.506;8.966;2022-07-29T09:57:05;5.30;;;4.03;;
23088;SDS011;11713;48.506;8.966;2022-07-29T09:59:34;4.07;;;3.63;;
23088;SDS011;11713;48.506;8.966;2022-07-29T10:02:00;4.55;;;4.10;;
23088;SDS011;11713;48.506;8.966;2022-07-29T10:04:39;7.53;;;3.90;;
23088;SDS011;11713;48.506;8.966;2022-07-29T10:07:05;5.03;;;3.88;;
23088;SDS011;11713;48.506;8.966;2022-07-29T10:09:32;4.00;;;3.67;;
23088;SDS011;11713;48.506;8.966;2022-07-29T10:12:04;3.85;;;3.47;;
23088;SDS011;11713;48.506;8.966;2022-07-29T10:14:32;4.45;;;4.10;;
23088;SDS011;11713;48.506;8.966;2022-07-29T10:16:59;5.70;;;3.95;;
23088;SDS011;11713;48.506;8.966;2022-07-29T10:19:29;4.13;;;3.72;;
23088;SDS011;11713;48.506;8.966;2022-07-29T10:22:00;4.57;;;4.13;;
23088;SDS011;11713;48.506;8.966;2022-07-29T10:24:29;6.22;;;3.88;;
23088;SDS011;11713;48.506;8.966;2022-07-29T10:26:57;6.55;;;3.83;;
23088;SDS011;11713;48.506;8.966;2022-07-29T10:29:25;5.25;;;4.03;;
23088;SDS011;11713;48.506;8.966;2022-07-29T10:34:34;4.45;;;3.78;;
23088;SDS011;11713;48.506;8.966;2022-07-29T10:39:55;3.72;;;3.42;;
23088;SDS011;11713;48.506;8.966;2022-07-29T10:42:54;5.43;;;4.13;;
23088;SDS011;11713;48.506;8.966;2022-07-29T10:45:24;3.85;;;3.55;;
23088;SDS011;11713;48.506;8.966;2022-07-29T10:48:02;4.32;;;3.90;;
23088;SDS011;11713;48.506;8.966;2022-07-29T10:50:51;4.60;;;3.55;;
23088;SDS011;11713;48.506;8.966;2022-07-29T10:53:20;4.95;;;3.47;;
23088;SDS011;11713;48.506;8.966;2022-07-29T10:55:50;4.05;;;3.58;;
23088;SDS011;11713;48.506;8.966;2022-07-29T10:58:19;3.60;;;3.30;;
23088;SDS011;11713;48.506;8.966;2022-07-29T11:00:48;4.00;;;3.60;;
23088;SDS011;11713;48.506;8.966;2022-07-29T11:06:10;5.18;;;4.20;;
23088;SDS011;11713;48.506;8.966;2022-07-29T11:08:42;4.10;;;3.70;;
23088;SDS011;11713;48.506;8.966;2022-07-29T11:11:35;4.80;;;3.83;;
23088;SDS011;11713;48.506;8.966;2022-07-29T11:14:02;4.80;;;3.92;;
23088;SDS011;11713;48.506;8.966;2022-07-29T11:16:58;5.75;;;4.07;;
23088;SDS011;11713;48.506;8.966;2022-07-29T11:19:29;4.22;;;3.53;;
23088;SDS011;11713;48.506;8.966;2022-07-29T11:21:56;4.97;;;3.45;;
23088;SDS011;11713;48.506;8.966;2022-07-29T11:24:24;3.75;;;2.78;;
23088;SDS011;11713;48.506;8.966;2022-07-29T11:27:12;3.33;;;3.03;;
23088;SDS011;11713;48.506;8.966;2022-07-29T11:29:52;3.10;;;2.88;;
23088;SDS011;11713;48.506;8.966;2022-07-29T11:32:23;3.72;;;3.30;;
23088;SDS011;11713;48.506;8.966;2022-07-29T11:37:36;3.15;;;2.70;;
23088;SDS011;11713;48.506;8.966;2022-07-29T11:45:09;2.65;;;2.45;;
23088;SDS011;11713;48.506;8.966;2022-07-29T11:47:57;2.28;;;2.08;;
23088;SDS011;11713;48.506;8.966;2022-07-29T11:50:36;2.95;;;2.58;;
23088;SDS011;11713;48.506;8.966;2022-07-29T11:53:05;2.83;;;2.60;;
23088;SDS011;11713;48.506;8.966;2022-07-29T11:55:38;4.00;;;3.10;;
23088;SDS011;11713;48.506;8.966;2022-07-29T11:58:07;3.20;;;3.00;;
23088;SDS011;11713;48.506;8.966;2022-07-29T12:00:34;3.55;;;3.13;;
23088;SDS011;11713;48.506;8.966;2022-07-29T12:03:08;3.67;;;2.90;;
23088;SDS011;11713;48.506;8.966;2022-07-29T12:05:40;3.40;;;3.10;;
23088;SDS011;11713;48.506;8.966;2022-07-29T12:08:09;3.45;;;3.17;;
23088;SDS011;11713;48.506;8.966;2022-07-29T12:10:44;4.30;;;3.58;;
23088;SDS011;11713;48.506;8.966;2022-07-29T12:13:11;3.88;;;3.47;;
23088;SDS011;11713;48.506;8.966;2022-07-29T12:15:38;3.53;;;3.22;;
23088;SDS011;11713;48.506;8.966;2022-07-29T12:18:12;3.58;;;3.28;;
23088;SDS011;11713;48.506;8.966;2022-07-29T12:20:48;3.65;;;3.30;;
23088;SDS011;11713;48.506;8.966;2022-07-29T12:23:21;3.97;;;3.28;;
23088;SDS011;11713;48.506;8.966;2022-07-29T12:25:47;4.15;;;3.53;;
23088;SDS011;11713;48.506;8.966;2022-07-29T12:28:13;3.80;;;3.35;;
23088;SDS011;11713;48.506;8.966;2022-07-29T12:30:47;3.70;;;3.22;;
23088;SDS011;11713;48.506;8.966;2022-07-29T12:33:22;4.65;;;3.47;;
23088;SDS011;11713;48.506;8.966;2022-07-29T12:35:51;4.53;;;3.58;;
23088;SDS011;11713;48.506;8.966;2022-07-29T12:38:19;4.35;;;3.45;;
23088;SDS011;11713;48.506;8.966;2022-07-29T12:40:46;4.65;;;3.45;;
23088;SDS011;11713;48.506;8.966;2022-07-29T12:43:15;4.80;;;3.60;;
23088;SDS011;11713;48.506;8.966;2022-07-29T12:45:45;4.72;;;3.60;;
23088;SDS011;11713;48.506;8.966;2022-07-29T12:48:17;4.22;;;3.83;;
23088;SDS011;11713;48.506;8.966;2022-07-29T12:50:59;4.00;;;3.70;;
23088;SDS011;11713;48.506;8.966;2022-07-29T12:53:27;6.22;;;4.40;;
23088;SDS011;11713;48.506;8.966;2022-07-29T12:55:54;4.03;;;3.72;;
23088;SDS011;11713;48.506;8.966;2022-07-29T12:58:34;5.75;;;3.83;;
23088;SDS011;11713;48.506;8.966;2022-07-29T13:01:09;4.30;;;3.28;;
23088;SDS011;11713;48.506;8.966;2022-07-29T13:03:56;3.45;;;3.03;;
23088;SDS011;11713;48.506;8.966;2022-07-29T13:06:39;3.20;;;3.00;;
23088;SDS011;11713;48.506;8.966;2022-07-29T13:09:15;3.63;;;3.33;;
23088;SDS011;11713;48.506;8.966;2022-07-29T13:11:45;3.30;;;3.00;;
23088;SDS011;11713;48.506;8.966;2022-07-29T13:14:14;6.55;;;3.70;;
23088;SDS011;11713;48.506;8.966;2022-07-29T13:19:33;5.47;;;4.03;;
23088;SDS011;11713;48.506;8.966;2022-07-29T13:22:13;4.00;;;3.60;;
23088;SDS011;11713;48.506;8.966;2022-07-29T13:24:46;4.32;;;3.55;;
23088;SDS011;11713;48.506;8.966;2022-07-29T13:27:18;4.30;;;3.90;;
23088;SDS011;11713;48.506;8.966;2022-07-29T13:29:45;5.22;;;4.10;;
23088;SDS011;11713;48.506;8.966;2022-07-29T13:32:12;3.88;;;3.58;;
23088;SDS011;11713;48.506;8.966;2022-07-29T13:34:38;4.63;;;4.15;;
23088;SDS011;11713;48.506;8.966;2022-07-29T13:37:06;5.25;;;4.15;;
23088;SDS011;11713;48.506;8.966;2022-07-29T13:39:32;4.78;;;3.95;;
23088;SDS011;11713;48.506;8.966;2022-07-29T13:41:58;5.40;;;4.40;;
23088;SDS011;11713;48.506;8.966;2022-07-29T13:44:24;4.90;;;4.07;;
23088;SDS011;11713;48.506;8.966;2022-07-29T13:46:52;4.30;;;3.92;;
23088;SDS011;11713;48.506;8.966;2022-07-29T13:49:18;4.50;;;4.10;;
23088;SDS011;11713;48.506;8.966;2022-07-29T13:51:45;4.78;;;4.28;;
23088;SDS011;11713;48.506;8.966;2022-07-29T13:54:14;4.93;;;4.30;;
23088;SDS011;11713;48.506;8.966;2022-07-29T13:56:41;4.70;;;4.30;;
23088;SDS011;11713;48.506;8.966;2022-07-29T13:59:07;4.53;;;4.13;;
23088;SDS011;11713;48.506;8.966;2022-07-29T14:01:36;4.97;;;4.50;;
23088;SDS011;11713;48.506;8.966;2022-07-29T14:04:03;4.65;;;4.18;;
23088;SDS011;11713;48.506;8.966;2022-07-29T14:06:29;4.57;;;4.18;;
23088;SDS011;11713;48.506;8.966;2022-07-29T14:09:06;4.22;;;3.92;;
23088;SDS011;11713;48.506;8.966;2022-07-29T14:11:36;4.43;;;4.03;;
23088;SDS011;11713;48.506;8.966;2022-07-29T14:14:05;4.35;;;4.00;;
23088;SDS011;11713;48.506;8.966;2022-07-29T14:16:40;5.82;;;4.30;;
23088;SDS011;11713;48.506;8.966;2022-07-29T14:19:17;4.30;;;3.90;;
23088;SDS011;11713;48.506;8.966;2022-07-29T14:21:43;5.53;;;4.60;;
23088;SDS011;11713;48.506;8.966;2022-07-29T14:24:20;4.47;;;3.80;;
23088;SDS011;11713;48.506;8.966;2022-07-29T14:27:05;4.70;;;4.30;;
23088;SDS011;11713;48.506;8.966;2022-07-29T14:29:32;6.35;;;4.30;;
23088;SDS011;11713;48.506;8.966;2022-07-29T14:31:59;4.13;;;3.72;;
23088;SDS011;11713;48.506;8.966;2022-07-29T14:37:06;4.82;;;4.32;;
23088;SDS011;11713;48.506;8.966;2022-07-29T14:39:36;5.53;;;4.00;;
23088;SDS011;11713;48.506;8.966;2022-07-29T14:44:54;4.60;;;4.13;;
23088;SDS011;11713;48.506;8.966;2022-07-29T14:47:19;3.78;;;3.40;;
23088;SDS011;11713;48.506;8.966;2022-07-29T14:49:47;4.45;;;4.05;;
23088;SDS011;11713;48.506;8.966;2022-07-29T14:52:14;3.80;;;3.50;;
23088;SDS011;11713;48.506;8.966;2022-07-29T14:54:40;4.13;;;3.72;;
23088;SDS011;11713;48.506;8.966;2022-07-29T14:57:06;3.92;;;3.63;;
23088;SDS011;11713;48.506;8.966;2022-07-29T14:59:32;4.05;;;3.75;;
23088;SDS011;11713;48.506;8.966;2022-07-29T15:01:58;5.20;;;3.97;;
23088;SDS011;11713;48.506;8.966;2022-07-29T15:04:26;4.20;;;3.90;;
23088;SDS011;11713;48.506;8.966;2022-07-29T15:06:54;5.13;;;3.97;;
23088;SDS011;11713;48.506;8.966;2022-07-29T15:09:25;4.50;;;3.65;;
23088;SDS011;11713;48.506;8.966;2022-07-29T15:12:00;4.60;;;4.20;;
23088;SDS011;11713;48.506;8.966;2022-07-29T15:14:38;5.13;;;3.85;;
23088;SDS011;11713;48.506;8.966;2022-07-29T15:17:10;4.70;;;3.67;;
23088;SDS011;11713;48.506;8.966;2022-07-29T15:19:36;5.57;;;4.10;;
23088;SDS011;11713;48.506;8.966;2022-07-29T15:22:03;4.18;;;3.78;;
23088;SDS011;11713;48.506;8.966;2022-07-29T15:24:32;4.63;;;3.70;;
23088;SDS011;11713;48.506;8.966;2022-07-29T15:26:59;3.65;;;3.35;;
23088;SDS011;11713;48.506;8.966;2022-07-29T15:29:25;4.35;;;3.90;;
23088;SDS011;11713;48.506;8.966;2022-07-29T15:31:51;3.38;;;3.15;;
23088;SDS011;11713;48.506;8.966;2022-07-29T15:34:30;3.70;;;3.38;;
23088;SDS011;11713;48.506;8.966;2022-07-29T15:36:56;4.10;;;3.60;;
23088;SDS011;11713;48.506;8.966;2022-07-29T15:39:22;4.10;;;3.80;;
23088;SDS011;11713;48.506;8.966;2022-07-29T15:41:48;4.43;;;3.70;;
23088;SDS011;11713;48.506;8.966;2022-07-29T15:44:15;4.03;;;3.47;;